• Join FlightAware (Why Join?)
  • Login
  • US Flag 
02:22AM EST


 

Airport Tracker/Info


-or-


 

Live Flight TrackerFlight Track Log ✈ UPS219 ✈ 15-Feb-2012 ✈ KSDF - KPHL

Flight Track Log - Related Links

Times and Time Zones

All times are in EST time to prevent confusion due to time zone crossing. See the UPS219 flight status page for this flight to view local times or setup timezone preferences in your user account.

Time Position Orientation Groundspeed Altitude Reporting Facility
EST Latitude Longitude Course Direction KTS MPH feet Rate Location/Type
03:47AM 38.1483 -85.7183 163° South 154 177 2,100  Level FAA TRACON SMA TRACON (SMA)
03:47AM 38.1344 -85.7131 163° South 165 190 2,500 1,020 Climbing FAA TRACON SMA TRACON (SMA)
03:48AM 38.1183 -85.7069 164° South 188 216 2,800 1,800 Climbing FAA TRACON SMA TRACON (SMA)
03:48AM 38.0956 -85.6986 165° South 218 251 3,700 2,100 Climbing FAA TRACON SMA TRACON (SMA)
03:48AM 38.0756 -85.6917 150° Southeast 235 270 4,200 1,920 Climbing FAA TRACON SMA TRACON (SMA)
03:49AM 38.0567 -85.6778 119° Southeast 256 295 5,000 2,820 Climbing FAA TRACON SMA TRACON (SMA)
03:49AM 38.0428 -85.6461 98° East 273 314 6,100 2,700 Climbing FAA TRACON SMA TRACON (SMA)
03:49AM 38.0394 -85.6164 94° East 278 320 6,800 2,220 Climbing FAA TRACON SMA TRACON (SMA)
03:50AM 38.0378 -85.5853 94° East 285 328 7,600 2,520 Climbing FAA TRACON SMA TRACON (SMA)
03:50AM 38.0353 -85.5444 96° East 299 344 8,500 2,520 Climbing FAA TRACON SMA TRACON (SMA)
03:50AM 38.0325 -85.5114 95° East 306 352 9,300 2,400 Climbing FAA TRACON SMA TRACON (SMA)
03:51AM 38.0300 -85.4775 94° East 313 360 10,100 1,920 Climbing FAA TRACON SMA TRACON (SMA)
03:51AM 38.0278 -85.4333 93° East 321 369 10,700 1,380 Climbing FAA TRACON SMA TRACON (SMA)
03:51AM 38.0256 -85.3853 89° East 347 399 11,100 1,260 Climbing FAA TRACON SMA TRACON (SMA)
03:52AM 38.0261 -85.3547 76° East 364 419 11,500 1,740 Climbing FAA TRACON SMA TRACON (SMA)
03:52AM 38.0364 -85.3031 65° Northeast 391 450 12,200 2,820 Climbing FAA TRACON SMA TRACON (SMA)
03:52AM 38.0508 -85.2636 63° Northeast 401 461 13,400 3,120 Climbing FAA TRACON SMA TRACON (SMA)
03:53AM 38.0664 -85.2242 63° Northeast 404 465 14,300 3,120 Climbing FAA TRACON SMA TRACON (SMA)
03:53AM 38.0867 -85.1736 63° Northeast 414 476 15,500 3,300 Climbing FAA TRACON SMA TRACON (SMA)
03:53AM 38.1033 -85.1328 64° Northeast 420 483 16,500 2,700 Climbing FAA TRACON SMA TRACON (SMA)
03:54AM 38.1194 -85.0903 63° Northeast 429 494 17,300 2,700 Climbing FAA TRACON SMA TRACON (SMA)
03:54AM 38.1411 -85.0364 63° Northeast 441 507 18,300 2,520 Climbing FAA TRACON SMA TRACON (SMA)
03:54AM 38.1586 -84.9925 64° Northeast 450 518 19,000 2,400 Climbing FAA TRACON SMA TRACON (SMA)
03:55AM 38.1758 -84.9475 74° East 457 526 19,900 2,340 Climbing FAA TRACON SMA TRACON (SMA)
03:55AM 38.1767 -84.9439 64° Northeast 436 502 20,100 2,280 Climbing Indianapolis Center
03:56AM 38.2344 -84.7944 64° Northeast 458 527 22,500 2,280 Climbing Indianapolis Center
03:57AM 38.2967 -84.6339 63° Northeast 483 556 24,700 2,100 Climbing Indianapolis Center
03:58AM 38.3628 -84.4656 65° Northeast 510 587 26,700 2,100 Climbing Indianapolis Center
03:59AM 38.4264 -84.2939 64° Northeast 528 608 28,900 2,280 Climbing Indianapolis Center
04:00AM 38.4964 -84.1089 64° Northeast 528 608 31,300 2,100 Climbing Indianapolis Center
04:01AM 38.5617 -83.9342 63° Northeast 528 608 33,200 1,620 Climbing Indianapolis Center
04:02AM 38.6308 -83.7617 66° East 528 608 34,600 840 Climbing Indianapolis Center
04:03AM 38.6917 -83.5889 65° Northeast 534 615 34,900 180 Climbing Indianapolis Center
04:04AM 38.7519 -83.4239 65° Northeast 520 598 35,000  Climbing Indianapolis Center
04:05AM 38.8142 -83.2506 63° Northeast 520 598 35,000  Level Indianapolis Center
04:06AM 38.8742 -83.1008 65° Northeast 520 598 35,000  Level Indianapolis Center
04:07AM 38.9381 -82.9217 65° Northeast 525 604 35,000  Level Indianapolis Center
04:08AM 39.0017 -82.7475 64° Northeast 530 610 35,000  Level Indianapolis Center
04:09AM 39.0669 -82.5728 65° Northeast 530 610 35,000  Level Indianapolis Center
04:10AM 39.1300 -82.3953 66° East 530 610 35,000  Level Indianapolis Center
04:11AM 39.1886 -82.2228 66° East 530 610 35,000  Level Indianapolis Center
04:13AM 39.3139 -81.8519 66° East 525 604 35,000  Level Cleveland Center
04:14AM 39.3719 -81.6839 65° Northeast 517 595 35,000  Level Cleveland Center
04:15AM 39.4275 -81.5289 65° Northeast 517 595 35,000  Level Cleveland Center
04:16AM 39.4892 -81.3578 66° East 517 595 35,000  Level Cleveland Center
04:17AM 39.5486 -81.1861 66° East 522 601 35,000  Level Cleveland Center
04:18AM 39.6056 -81.0169 66° East 517 595 35,000  Level Cleveland Center
04:19AM 39.6644 -80.8472 70° East 512 589 35,000  Level Cleveland Center
04:20AM 39.7128 -80.6747 82° East 512 589 35,000  Level Cleveland Center
04:21AM 39.7336 -80.4886 83° East 512 589 35,000  Level Cleveland Center
04:22AM 39.7519 -80.2969 83° East 518 596 35,000  Level Cleveland Center
04:23AM 39.7703 -80.1106 83° East 524 603 35,000  Level Cleveland Center
04:24AM 39.7881 -79.9239 84° East 519 597 35,000  Level Cleveland Center
04:25AM 39.8033 -79.7347 84° East 524 603 35,000  Level Cleveland Center
04:26AM 39.8186 -79.5425 83° East 524 603 35,000  Level Cleveland Center
04:27AM 39.8356 -79.3558 83° East 524 603 35,000  Level Cleveland Center
04:28AM 39.8519 -79.1689 85° East 524 603 35,000  Level Cleveland Center
04:29AM 39.8658 -78.9575 84° East 529 609 35,000  Level Cleveland Center
04:30AM 39.8817 -78.7678 85° East 529 609 35,000  Level Cleveland Center
04:31AM 39.8953 -78.5806 84° East 529 609 35,000  Level Cleveland Center
04:32AM 39.9106 -78.3881 84° East 529 609 35,000  Level Cleveland Center
04:33AM 39.9239 -78.2197 84° East 524 603 35,000 -660 Level Cleveland Center
04:35AM 39.9531 -77.8178 84° East 516 594 33,000 -1,380 Descending New York Center
04:36AM 39.9683 -77.6294 86° East 516 594 30,700 -2,220 Descending New York Center
04:37AM 39.9789 -77.4464 85° East 516 594 28,700 -1,920 Descending New York Center
04:43AM 40.0454 -76.4049 86° East 411 473 17,000 -1,920 Descending FlightAware ADS-B
04:44AM 40.0501 -76.3264 86° East 404 465 16,100 -1,800 Descending FlightAware ADS-B
04:44AM 40.0543 -76.2538 86° East 401 461 15,200 -1,920 Descending FlightAware ADS-B
04:45AM 40.0588 -76.1769 86° East 398 458 14,200 -1,860 Descending FlightAware ADS-B
04:45AM 40.0631 -76.1006 86° East 395 455 13,300 -1,740 Descending FlightAware ADS-B
04:46AM 40.0671 -76.0273 86° East 391 450 12,400 -1,800 Descending FlightAware ADS-B
04:46AM 40.0710 -75.9571 86° East 387 445 11,500 -1,800 Descending FlightAware ADS-B
04:47AM 40.0748 -75.8875 86° East 384 442 10,600 -1,320 Descending FlightAware ADS-B
04:47AM 40.0785 -75.8171 86° East 368 423 10,200 -780 Descending FlightAware ADS-B
04:48AM 40.0805 -75.7780 86° East 352 405 10,000 -360 Descending FlightAware ADS-B
04:48AM 40.0824 -75.7452 86° East 330 380 10,000  Level FlightAware ADS-B
04:48AM 40.0849 -75.6981 86° East 304 350 10,000 -180 Level FlightAware ADS-B
04:48AM 40.0865 -75.6710 85° East 297 342 9,900 -240 Descending FlightAware ADS-B
04:49AM 40.0883 -75.6444 86° East 295 339 9,900  Level FlightAware ADS-B
04:49AM 40.0900 -75.6159 85° East 294 338 9,900 -420 Level FlightAware ADS-B
04:49AM 40.0919 -75.5878 85° East 290 334 9,700 -960 Descending FlightAware ADS-B
04:50AM 40.0952 -75.5392 85° East 286 329 9,200 -1,140 Descending FlightAware ADS-B
04:50AM 40.0985 -75.4879 85° East 283 326 8,600 -1,200 Descending FlightAware ADS-B
04:51AM 40.1013 -75.4437 86° East 280 322 8,100 -1,440 Descending FlightAware ADS-B
04:51AM 40.1038 -75.3951 87° East 278 320 7,300 -1,800 Descending FlightAware ADS-B
04:51AM 40.1048 -75.3680 88° East 280 322 6,800 -1,800 Descending FlightAware ADS-B
04:52AM 40.1061 -75.3259 88° East 278 320 6,100 -1,740 Descending FlightAware ADS-B
04:52AM 40.1067 -75.2990 88° East 277 319 5,600 -1,920 Descending FlightAware ADS-B
04:52AM 40.1073 -75.2724 88° East 273 314 5,100 -1,800 Descending FlightAware ADS-B
04:53AM 40.1079 -75.2459 88° East 274 315 4,700 -1,380 Descending FlightAware ADS-B
04:53AM 40.1087 -75.2195 88° East 273 314 4,400 -1,020 Descending FlightAware ADS-B
04:53AM 40.1094 -75.1948 88° East 273 314 4,200 -1,020 Descending FlightAware ADS-B
04:53AM 40.1101 -75.1701 102° East 271 312 3,900 -600 Descending FlightAware ADS-B
04:54AM 40.1058 -75.1439 127° Southeast 258 297 3,900  Level FlightAware ADS-B
04:54AM 40.0933 -75.1220 125° Southeast 241 277 3,900  Level FlightAware ADS-B
04:54AM 40.0825 -75.1022 126° Southeast 235 270 3,900  Level FlightAware ADS-B
04:55AM 40.0659 -75.0726 125° Southeast 214 246 3,900 -180 Level FlightAware ADS-B
04:55AM 40.0565 -75.0553 125° Southeast 202 232 3,800 -600 Descending FlightAware ADS-B
04:55AM 40.0486 -75.0406 124° Southeast 196 226 3,600 -780 Descending FlightAware ADS-B
04:55AM 40.0401 -75.0244 127° Southeast 192 221 3,400 -900 Descending FlightAware ADS-B
04:56AM 40.0300 -75.0068 156° South 188 216 3,100 -840 Descending FlightAware ADS-B
04:56AM 40.0160 -74.9987 177° South 181 208 2,900 -300 Descending FlightAware ADS-B
04:56AM 39.9978 -74.9974 176° South 185 213 2,900  Level FlightAware ADS-B
04:57AM 39.9845 -74.9962 176° South 182 209 2,900  Level FlightAware ADS-B
04:57AM 39.9719 -74.9950 176° South 182 209 2,900  Level FlightAware ADS-B
04:57AM 39.9591 -74.9937 200° South 183 211 2,900  Level FlightAware ADS-B
04:58AM 39.9413 -75.0022 229° Southwest 180 207 2,900  Level FlightAware ADS-B
04:58AM 39.9320 -75.0162 228° Southwest 181 208 2,900  Level FlightAware ADS-B
04:58AM 39.9236 -75.0283 229° Southwest 178 205 2,900 -180 Level FlightAware ADS-B
04:59AM 39.9116 -75.0461 247° West 180 207 2,800 -660 Descending FlightAware ADS-B
04:59AM 39.9069 -75.0606 258° West 170 196 2,500 -960 Descending FlightAware ADS-B
04:59AM 39.9040 -75.0781 255° West 164 189 2,300 -900 Descending FlightAware ADS-B
04:59AM 39.8992 -75.1012 256° West 165 190 1,900 -960 Descending FlightAware ADS-B
05:00AM 39.8967 -75.1147 256° West 165 190 1,700 -960 Descending FlightAware ADS-B
05:00AM 39.8932 -75.1326 255° West 153 176 1,400 -900 Descending FlightAware ADS-B
05:00AM 39.8903 -75.1464 256° West 147 169 1,200 -900 Descending FlightAware ADS-B
05:01AM 39.8874 -75.1612 256° West 148 170 900 -900 Descending FlightAware ADS-B
05:01AM 39.8844 -75.1768 255° West 149 171 700 -900 Descending FlightAware ADS-B
05:01AM 39.8813 -75.1924 254° West 149 171 400 -660 Descending FlightAware ADS-B
05:01AM 39.8800 -75.1983 256° West 147 169 400 -420 Level FAA TRACON SMA TRACON (SMA)
05:02AM 39.8769 -75.2139 256° West 146 168 200 -600 Descending FAA TRACON SMA TRACON (SMA)